Time;durP1;ratioP1;P1;durP2;ratioP2;P2;SDS_P1;SDS_P2;PMS_P1;PMS_P2;Temp;Humidity;BMP_temperature;BMP_pressure;BME280_temperature;BME280_humidity;BME280_pressure;Samples;Min_cycle;Max_cycle;Signal;HPM_P1;HPM_P2
2022/12/31 00:02:08;;;;;;;12.40;7.72;;;12.50;99.90;;;;;;5053679;28;20033;-84
2022/12/31 00:04:34;;;;;;;10.57;7.25;;;12.50;99.90;;;;;;5054072;28;20028;-84
2022/12/31 00:06:59;;;;;;;12.40;7.97;;;12.50;99.90;;;;;;5054407;28;20037;-84
2022/12/31 00:09:25;;;;;;;11.80;7.38;;;12.40;99.90;;;;;;5054599;28;20489;-84
2022/12/31 00:11:51;;;;;;;11.05;6.97;;;12.40;99.90;;;;;;5053312;28;20036;-84
2022/12/31 00:14:16;;;;;;;10.25;7.35;;;12.40;99.90;;;;;;5054566;28;20025;-84
2022/12/31 00:16:42;;;;;;;11.30;7.07;;;12.40;99.90;;;;;;5053908;28;20033;-84
2022/12/31 00:19:10;;;;;;;11.82;7.88;;;12.40;99.90;;;;;;5053521;28;20052;-84
2022/12/31 00:21:36;;;;;;;11.55;7.28;;;12.50;99.90;;;;;;5053905;28;20419;-84
2022/12/31 00:24:03;;;;;;;13.55;7.85;;;12.50;99.90;;;;;;5053451;28;20044;-84
2022/12/31 00:26:31;;;;;;;11.05;7.85;;;12.50;99.90;;;;;;5052102;28;20444;-84
2022/12/31 00:28:59;;;;;;;11.68;7.53;;;12.50;99.90;;;;;;5053409;28;20032;-84
2022/12/31 00:31:30;;;;;;;10.43;7.95;;;12.50;99.90;;;;;;5053408;28;20397;-84
2022/12/31 00:33:56;;;;;;;10.38;7.63;;;12.50;99.90;;;;;;5051955;28;20072;-84
2022/12/31 00:36:25;;;;;;;9.82;7.20;;;12.50;99.90;;;;;;5053279;28;20072;-84
2022/12/31 00:38:52;;;;;;;12.10;8.25;;;12.50;99.90;;;;;;5052411;28;20037;-84
2022/12/31 00:41:19;;;;;;;11.82;8.13;;;12.50;99.90;;;;;;5053933;28;20094;-84
2022/12/31 00:43:45;;;;;;;14.43;7.47;;;12.50;99.90;;;;;;5053075;28;20032;-83
2022/12/31 00:46:12;;;;;;;10.93;7.40;;;12.50;99.90;;;;;;5051986;28;20021;-84
2022/12/31 00:48:38;;;;;;;12.88;7.25;;;12.50;99.90;;;;;;5052371;28;20033;-84
2022/12/31 00:51:06;;;;;;;12.20;6.90;;;12.50;99.90;;;;;;5053729;28;20029;-84
2022/12/31 00:53:32;;;;;;;10.57;7.30;;;12.50;99.90;;;;;;5053289;28;20035;-84
2022/12/31 00:56:05;;;;;;;11.30;7.32;;;12.40;99.90;;;;;;5052695;28;20025;-84
2022/12/31 00:58:32;;;;;;;12.73;7.75;;;12.50;99.90;;;;;;5052702;28;20394;-84
2022/12/31 01:00:57;;;;;;;13.85;7.22;;;12.50;99.90;;;;;;5053414;28;20029;-84
2022/12/31 01:03:24;;;;;;;17.20;7.55;;;12.50;99.90;;;;;;5053717;28;20043;-84
2022/12/31 01:05:49;;;;;;;11.18;6.85;;;12.60;99.90;;;;;;5053030;28;20127;-84
2022/12/31 01:08:16;;;;;;;12.30;6.60;;;12.60;99.90;;;;;;5052754;28;20068;-84
2022/12/31 01:13:32;;;;;;;9.80;6.65;;;12.60;99.90;;;;;;5053257;28;20036;-84
2022/12/31 01:15:57;;;;;;;9.13;6.43;;;12.60;99.90;;;;;;5051732;28;20017;-84
2022/12/31 01:18:23;;;;;;;11.63;6.55;;;12.60;99.90;;;;;;5052787;28;20033;-84
2022/12/31 01:20:48;;;;;;;9.85;6.57;;;12.60;99.90;;;;;;5052903;28;20021;-84
2022/12/31 01:23:14;;;;;;;9.63;6.88;;;12.50;99.90;;;;;;5053005;28;20021;-84
2022/12/31 01:25:43;;;;;;;9.00;6.60;;;12.50;99.90;;;;;;5051173;28;20084;-84
2022/12/31 01:28:09;;;;;;;9.07;6.82;;;12.50;99.90;;;;;;5050991;28;20040;-83
2022/12/31 01:30:38;;;;;;;8.85;6.35;;;12.60;99.90;;;;;;5052724;28;20040;-84
2022/12/31 01:33:03;;;;;;;8.68;6.22;;;12.50;99.90;;;;;;5053352;28;20032;-84
2022/12/31 01:35:29;;;;;;;9.77;6.88;;;12.50;99.90;;;;;;5052769;28;20170;-84
2022/12/31 01:37:54;;;;;;;13.55;6.97;;;12.50;99.90;;;;;;5052164;28;20469;-84
2022/12/31 01:40:20;;;;;;;13.90;7.07;;;12.50;99.90;;;;;;5052346;28;20057;-84
2022/12/31 01:42:53;;;;;;;10.05;6.43;;;12.60;99.90;;;;;;5052445;28;20524;-84
2022/12/31 01:45:19;;;;;;;11.07;6.60;;;12.60;99.90;;;;;;5052467;28;20033;-84
2022/12/31 01:47:49;;;;;;;12.73;7.05;;;12.50;99.90;;;;;;5052234;28;20075;-84
2022/12/31 01:50:23;;;;;;;10.50;6.72;;;12.50;99.90;;;;;;5052382;28;20393;-84
2022/12/31 01:52:56;;;;;;;11.52;6.80;;;12.50;99.90;;;;;;5052416;28;20488;-84
2022/12/31 01:55:33;;;;;;;13.10;6.72;;;12.50;99.90;;;;;;5052726;28;20021;-84
2022/12/31 01:58:10;;;;;;;11.65;6.80;;;12.50;99.90;;;;;;5052304;28;20025;-84
2022/12/31 02:00:36;;;;;;;10.18;6.53;;;12.60;99.90;;;;;;5052528;28;20139;-84
2022/12/31 02:03:04;;;;;;;11.48;6.70;;;12.60;99.90;;;;;;5052755;28;20053;-83
2022/12/31 02:05:56;;;;;;;10.65;6.60;;;12.60;99.90;;;;;;5052589;28;20055;-84
2022/12/31 02:08:22;;;;;;;11.05;6.93;;;12.60;99.90;;;;;;5053185;28;20045;-84
2022/12/31 02:10:48;;;;;;;12.85;6.13;;;12.60;99.90;;;;;;5056334;28;20032;-84
2022/12/31 02:13:14;;;;;;;10.80;6.43;;;12.60;99.90;;;;;;5056296;28;20362;-84
2022/12/31 02:16:02;;;;;;;11.63;6.90;;;12.60;99.90;;;;;;5055614;28;20032;-84
2022/12/31 02:18:46;;;;;;;10.48;6.35;;;12.60;99.90;;;;;;5056051;28;20035;-84
2022/12/31 02:21:37;;;;;;;7.90;6.00;;;12.60;99.90;;;;;;5056429;28;20041;-84
2022/12/31 02:24:09;;;;;;;11.60;6.13;;;12.60;99.90;;;;;;5055957;28;20029;-84
2022/12/31 02:26:50;;;;;;;10.30;6.35;;;12.60;99.90;;;;;;5055872;28;20844;-84
2022/12/31 02:29:55;;;;;;;11.98;6.63;;;12.60;99.90;;;;;;5056123;28;20537;-84
2022/12/31 02:32:35;;;;;;;10.73;6.03;;;12.50;99.90;;;;;;5055706;28;20021;-83
2022/12/31 02:35:30;;;;;;;7.55;5.68;;;12.60;99.90;;;;;;5055962;28;20107;-84
2022/12/31 02:38:09;;;;;;;12.68;6.20;;;12.60;99.90;;;;;;5042902;28;20033;-84
2022/12/31 02:40:37;;;;;;;10.18;5.88;;;12.60;99.90;;;;;;5056492;28;20071;-84
2022/12/31 02:43:03;;;;;;;9.85;5.75;;;12.60;99.90;;;;;;5055691;28;20078;-84
2022/12/31 02:45:36;;;;;;;9.27;6.28;;;12.40;99.90;;;;;;5054292;28;20040;-85
2022/12/31 02:48:20;;;;;;;11.65;5.70;;;12.30;99.90;;;;;;5055435;28;20584;-84
2022/12/31 02:51:10;;;;;;;8.70;6.22;;;12.30;99.90;;;;;;5055684;28;20028;-84
2022/12/31 02:54:06;;;;;;;9.02;5.93;;;12.10;99.90;;;;;;5055631;28;20509;-85
2022/12/31 02:57:00;;;;;;;12.52;6.15;;;12.00;99.90;;;;;;5055165;28;20025;-84
2022/12/31 03:02:21;;;;;;;6.55;5.32;;;11.90;99.90;;;;;;5056033;28;20028;-84
2022/12/31 03:04:53;;;;;;;10.85;5.80;;;12.00;99.90;;;;;;5055754;28;20051;-84
2022/12/31 03:07:27;;;;;;;8.88;5.80;;;11.90;99.90;;;;;;5055253;28;20049;-84
2022/12/31 03:09:53;;;;;;;7.38;5.40;;;11.90;99.90;;;;;;5055365;28;20025;-84
2022/12/31 03:15:18;;;;;;;8.38;5.20;;;11.80;99.90;;;;;;5055546;28;20044;-85
2022/12/31 03:18:04;;;;;;;11.75;6.20;;;11.70;99.90;;;;;;5054978;28;20079;-84
2022/12/31 03:23:25;;;;;;;11.32;6.60;;;12.20;99.90;;;;;;5055155;28;20516;-84
2022/12/31 03:25:52;;;;;;;8.77;5.95;;;12.30;99.90;;;;;;5054544;28;20040;-84
2022/12/31 03:28:20;;;;;;;7.85;6.05;;;12.20;99.90;;;;;;5055180;28;20045;-84
2022/12/31 03:30:50;;;;;;;7.57;5.45;;;12.20;99.90;;;;;;5055350;28;20021;-84
2022/12/31 03:33:18;;;;;;;7.78;5.55;;;12.10;99.90;;;;;;5055166;28;20028;-84
2022/12/31 03:35:45;;;;;;;10.98;5.47;;;12.10;99.90;;;;;;5055097;28;20025;-84
2022/12/31 03:38:11;;;;;;;14.30;6.45;;;12.20;99.90;;;;;;5054962;28;20033;-84
2022/12/31 03:40:39;;;;;;;9.55;6.18;;;12.00;99.90;;;;;;5055005;28;20491;-84
2022/12/31 03:43:06;;;;;;;11.18;6.13;;;12.10;99.90;;;;;;5054502;28;20393;-84
2022/12/31 03:45:33;;;;;;;11.52;5.90;;;12.00;99.90;;;;;;5054648;28;20037;-83
2022/12/31 03:47:59;;;;;;;9.70;6.30;;;12.10;99.90;;;;;;5054580;28;20025;-84
2022/12/31 03:50:25;;;;;;;10.35;6.30;;;12.00;99.90;;;;;;5054494;28;20021;-84
2022/12/31 03:52:51;;;;;;;8.50;5.97;;;12.00;99.90;;;;;;5054299;28;20124;-84
2022/12/31 03:55:16;;;;;;;11.43;6.15;;;11.90;99.90;;;;;;5054367;28;20090;-84
2022/12/31 03:57:42;;;;;;;7.85;6.00;;;11.80;99.90;;;;;;5054593;28;20018;-84
2022/12/31 04:00:12;;;;;;;9.32;6.28;;;11.80;99.90;;;;;;5054320;28;20401;-84
2022/12/31 04:02:39;;;;;;;7.70;5.63;;;11.80;99.90;;;;;;5054262;28;20036;-84
2022/12/31 04:05:05;;;;;;;11.57;6.30;;;11.70;99.90;;;;;;5054631;28;20021;-84
2022/12/31 04:07:31;;;;;;;9.20;6.05;;;11.70;99.90;;;;;;5054087;28;20570;-84
2022/12/31 04:09:57;;;;;;;9.40;5.97;;;11.60;99.90;;;;;;5054475;28;20036;-84
2022/12/31 04:12:23;;;;;;;7.93;6.05;;;11.60;99.90;;;;;;5053167;28;20398;-83
2022/12/31 04:14:48;;;;;;;11.13;6.00;;;11.60;99.90;;;;;;5052882;28;20029;-84
2022/12/31 04:17:14;;;;;;;11.23;5.85;;;11.50;99.90;;;;;;5054399;28;20420;-83
2022/12/31 04:19:39;;;;;;;7.43;5.65;;;11.50;99.90;;;;;;5052778;28;20035;-84
2022/12/31 04:22:05;;;;;;;9.23;5.50;;;11.50;99.90;;;;;;5053762;28;20031;-84
2022/12/31 04:24:31;;;;;;;10.23;6.47;;;11.50;99.90;;;;;;5053030;28;20500;-84
2022/12/31 04:26:57;;;;;;;8.82;6.32;;;11.50;99.90;;;;;;5054118;28;20397;-84
2022/12/31 04:29:22;;;;;;;8.80;5.95;;;11.50;99.90;;;;;;5054207;28;20025;-84
2022/12/31 04:31:48;;;;;;;11.27;6.05;;;11.50;99.90;;;;;;5053276;28;20053;-84
2022/12/31 04:34:14;;;;;;;9.60;5.97;;;11.50;99.90;;;;;;5054162;28;20437;-83
2022/12/31 04:36:39;;;;;;;9.43;6.13;;;11.50;99.90;;;;;;5054217;28;20083;-84
2022/12/31 04:39:05;;;;;;;9.50;5.65;;;11.50;99.90;;;;;;5053533;28;20116;-84
2022/12/31 04:41:31;;;;;;;9.90;5.80;;;11.50;99.90;;;;;;5053917;28;20025;-84
2022/12/31 04:43:58;;;;;;;10.35;5.93;;;11.60;99.90;;;;;;5053653;28;20033;-84
2022/12/31 04:46:26;;;;;;;8.85;5.40;;;11.60;99.90;;;;;;5054065;28;20037;-84
2022/12/31 04:48:52;;;;;;;9.27;6.10;;;11.60;99.90;;;;;;5053688;28;20055;-84
2022/12/31 04:51:19;;;;;;;8.18;6.05;;;11.60;99.90;;;;;;5053604;28;20036;-84
2022/12/31 04:53:44;;;;;;;7.13;5.28;;;11.60;99.90;;;;;;5053911;28;20032;-84
2022/12/31 04:56:11;;;;;;;9.68;5.45;;;11.70;99.90;;;;;;5053491;28;20375;-84
2022/12/31 04:58:37;;;;;;;8.55;4.57;;;11.70;99.90;;;;;;5053766;28;20071;-84
2022/12/31 05:01:03;;;;;;;7.22;5.10;;;11.80;99.90;;;;;;5053771;28;20025;-84
2022/12/31 05:03:30;;;;;;;9.23;4.97;;;11.80;99.90;;;;;;5053090;28;20499;-84
2022/12/31 05:06:04;;;;;;;6.25;4.45;;;11.80;99.90;;;;;;5053145;28;20059;-84
2022/12/31 05:08:31;;;;;;;6.28;4.82;;;11.70;99.90;;;;;;5052029;28;20044;-83
2022/12/31 05:10:57;;;;;;;8.15;4.63;;;11.80;99.90;;;;;;5053596;28;20412;-84
2022/12/31 05:13:23;;;;;;;5.93;5.15;;;11.80;99.90;;;;;;5051800;28;20025;-84
2022/12/31 05:15:49;;;;;;;9.38;5.50;;;11.80;99.90;;;;;;5052374;28;20021;-84
2022/12/31 05:18:15;;;;;;;9.63;4.47;;;11.80;99.90;;;;;;5053031;28;20397;-84
2022/12/31 05:20:41;;;;;;;9.30;4.47;;;11.80;99.90;;;;;;5052819;28;20036;-83
2022/12/31 05:23:07;;;;;;;5.35;4.10;;;11.70;99.90;;;;;;5053158;28;20029;-84
2022/12/31 05:25:32;;;;;;;8.02;4.68;;;11.70;99.90;;;;;;5052942;28;20021;-83
2022/12/31 05:27:58;;;;;;;8.18;4.60;;;11.70;99.90;;;;;;5052826;28;20029;-83
2022/12/31 05:30:24;;;;;;;5.82;4.40;;;11.60;99.90;;;;;;5052894;28;20090;-84
2022/12/31 05:32:50;;;;;;;6.00;4.20;;;11.60;99.90;;;;;;5052179;28;20457;-84
2022/12/31 05:35:16;;;;;;;6.95;4.30;;;11.60;99.90;;;;;;5052277;28;20037;-84
2022/12/31 05:37:42;;;;;;;6.93;4.90;;;11.60;99.90;;;;;;5052547;28;20021;-84
2022/12/31 05:40:08;;;;;;;5.47;4.47;;;11.60;99.90;;;;;;5052848;28;20462;-84
2022/12/31 05:42:34;;;;;;;7.25;4.43;;;11.60;99.90;;;;;;5050721;28;20135;-84
2022/12/31 05:44:59;;;;;;;8.25;4.40;;;11.60;99.90;;;;;;5052335;28;20112;-84
2022/12/31 05:47:25;;;;;;;9.45;4.30;;;11.60;99.90;;;;;;5052464;28;20037;-83
2022/12/31 05:49:51;;;;;;;7.10;4.47;;;11.60;99.90;;;;;;5053032;28;20116;-84
2022/12/31 05:52:17;;;;;;;7.25;4.28;;;11.60;99.90;;;;;;5051503;28;20056;-84
2022/12/31 05:54:43;;;;;;;4.85;3.97;;;11.60;99.90;;;;;;5052794;28;20025;-84
2022/12/31 05:57:09;;;;;;;7.65;3.60;;;11.70;99.90;;;;;;5053380;28;20048;-84
2022/12/31 05:59:34;;;;;;;5.93;3.90;;;11.70;99.90;;;;;;5052931;28;20036;-84
2022/12/31 06:02:00;;;;;;;7.25;4.20;;;11.60;99.90;;;;;;5052623;28;20032;-84
2022/12/31 06:04:26;;;;;;;5.53;4.15;;;11.60;99.90;;;;;;5051862;28;20061;-84
2022/12/31 06:06:51;;;;;;;5.47;3.40;;;11.70;99.90;;;;;;5052089;28;20048;-84
2022/12/31 06:09:18;;;;;;;7.47;3.97;;;11.60;99.90;;;;;;5051015;28;20501;-84
2022/12/31 06:11:44;;;;;;;6.68;4.22;;;11.60;99.90;;;;;;5051956;28;20033;-84
2022/12/31 06:14:10;;;;;;;5.43;3.42;;;11.60;99.90;;;;;;5051263;28;20028;-85
2022/12/31 06:16:36;;;;;;;7.13;3.65;;;11.60;99.90;;;;;;5051814;28;20037;-84
2022/12/31 06:19:01;;;;;;;5.53;3.45;;;11.60;99.90;;;;;;5052827;28;20032;-84
2022/12/31 06:21:27;;;;;;;6.32;3.45;;;11.60;99.90;;;;;;5052560;28;20092;-84
2022/12/31 06:23:53;;;;;;;6.20;4.00;;;11.60;99.90;;;;;;5052286;28;20024;-85
2022/12/31 06:26:19;;;;;;;7.10;3.63;;;11.60;99.90;;;;;;5052604;28;20033;-84
2022/12/31 06:28:45;;;;;;;6.50;3.75;;;11.50;99.90;;;;;;5052340;28;20052;-84
2022/12/31 06:31:13;;;;;;;10.15;3.53;;;11.60;99.90;;;;;;5052328;28;20021;-84
2022/12/31 06:33:40;;;;;;;6.15;4.10;;;11.50;99.90;;;;;;5051499;28;20029;-84
2022/12/31 06:36:10;;;;;;;5.88;3.60;;;11.60;99.90;;;;;;5051811;28;20029;-84
2022/12/31 06:38:37;;;;;;;4.28;3.28;;;11.60;99.90;;;;;;5053240;28;20787;-84
2022/12/31 06:41:07;;;;;;;6.25;4.00;;;11.50;99.90;;;;;;5052291;28;20021;-84
2022/12/31 06:43:37;;;;;;;7.50;4.13;;;11.50;99.90;;;;;;5052389;28;20028;-84
2022/12/31 06:46:05;;;;;;;8.18;3.63;;;11.50;99.90;;;;;;5052031;28;20120;-84
2022/12/31 06:48:31;;;;;;;8.82;4.13;;;11.50;99.90;;;;;;5052143;28;20017;-83
2022/12/31 06:51:01;;;;;;;6.53;3.80;;;11.60;99.90;;;;;;5051850;28;20401;-84
2022/12/31 06:53:27;;;;;;;7.30;3.50;;;11.60;99.90;;;;;;5051762;28;20557;-84
2022/12/31 06:55:53;;;;;;;5.13;3.60;;;11.60;99.90;;;;;;5055290;28;20028;-84
2022/12/31 06:58:18;;;;;;;4.82;3.28;;;11.60;99.90;;;;;;5055206;28;20037;-84
2022/12/31 07:01:12;;;;;;;7.05;3.80;;;11.60;99.90;;;;;;5055785;28;20507;-84
2022/12/31 07:04:10;;;;;;;4.55;3.53;;;11.60;99.90;;;;;;4993557;28;20030;-84
2022/12/31 07:06:50;;;;;;;7.78;3.50;;;11.70;99.90;;;;;;4955271;29;20055;-84
2022/12/31 07:09:28;;;;;;;7.60;3.67;;;11.80;99.90;;;;;;4954619;28;20047;-84
2022/12/31 07:12:39;;;;;;;7.68;3.80;;;11.80;99.90;;;;;;4954729;29;20054;-84
2022/12/31 07:15:24;;;;;;;6.45;3.35;;;11.80;99.90;;;;;;4935505;29;20040;-84
2022/12/31 07:17:53;;;;;;;6.85;3.63;;;11.90;99.90;;;;;;4935563;29;20042;-84
2022/12/31 07:20:20;;;;;;;5.95;3.72;;;11.80;99.90;;;;;;4935709;29;20070;-84
2022/12/31 07:22:46;;;;;;;7.18;3.85;;;11.80;99.90;;;;;;4936128;29;20037;-84
2022/12/31 07:25:16;;;;;;;5.25;3.45;;;11.80;99.90;;;;;;4935232;29;20043;-84
2022/12/31 07:27:41;;;;;;;6.35;3.00;;;12.00;99.90;;;;;;4934949;29;20047;-84
2022/12/31 07:30:27;;;;;;;4.75;3.25;;;11.90;99.90;;;;;;4935084;29;20209;-84
2022/12/31 07:33:10;;;;;;;6.95;3.47;;;12.00;99.90;;;;;;4935955;29;20031;-84
2022/12/31 07:36:00;;;;;;;6.60;3.95;;;12.00;99.90;;;;;;4935020;29;20583;-84
2022/12/31 07:38:34;;;;;;;6.30;3.22;;;12.00;99.90;;;;;;4935707;29;20178;-84
2022/12/31 07:41:34;;;;;;;6.03;3.38;;;12.10;99.90;;;;;;4935594;29;20047;-84
2022/12/31 07:44:12;;;;;;;6.35;3.78;;;12.10;99.90;;;;;;4990530;28;20030;-84
2022/12/31 07:46:58;;;;;;;4.80;3.83;;;12.20;99.90;;;;;;5031134;28;20054;-83
2022/12/31 07:49:26;;;;;;;8.18;3.63;;;12.20;99.90;;;;;;5033614;28;20455;-84
2022/12/31 07:51:53;;;;;;;5.35;3.92;;;12.30;99.90;;;;;;5033151;28;20032;-84
2022/12/31 07:54:19;;;;;;;7.25;3.65;;;12.50;99.90;;;;;;5034918;28;20574;-84
2022/12/31 07:56:45;;;;;;;7.07;4.05;;;12.50;99.90;;;;;;5034721;28;20113;-84
2022/12/31 07:59:22;;;;;;;7.60;3.72;;;12.60;99.90;;;;;;5034607;28;20095;-84
2022/12/31 08:01:58;;;;;;;7.20;3.80;;;12.70;99.90;;;;;;5034272;28;20087;-84
2022/12/31 08:04:40;;;;;;;6.85;3.28;;;12.80;99.90;;;;;;5034299;28;20033;-85
2022/12/31 08:07:21;;;;;;;5.95;3.63;;;13.10;99.90;;;;;;5034381;28;20041;-84
2022/12/31 08:10:07;;;;;;;5.47;3.30;;;13.10;99.90;;;;;;5052357;28;20495;-85
2022/12/31 08:12:36;;;;;;;4.18;3.50;;;13.10;99.90;;;;;;5053709;28;20051;-83
2022/12/31 08:15:10;;;;;;;4.15;3.15;;;13.20;99.90;;;;;;5053808;28;20032;-84
2022/12/31 08:17:36;;;;;;;5.60;3.55;;;13.40;99.90;;;;;;5053865;28;20025;-84
2022/12/31 08:20:02;;;;;;;5.97;3.53;;;13.50;99.90;;;;;;5053449;28;20404;-81
2022/12/31 08:22:39;;;;;;;7.85;4.13;;;13.60;99.90;;;;;;5053291;28;20047;-81
2022/12/31 08:25:26;;;;;;;4.63;3.70;;;13.80;99.90;;;;;;5053376;28;20079;-81
2022/12/31 08:28:17;;;;;;;4.60;3.50;;;13.70;99.90;;;;;;5052989;28;20572;-81
2022/12/31 08:31:00;;;;;;;5.90;3.53;;;13.90;99.90;;;;;;5053719;28;20021;-80
2022/12/31 08:34:10;;;;;;;5.53;3.67;;;14.40;99.90;;;;;;5053376;28;20385;-81
2022/12/31 08:36:57;;;;;;;7.78;3.45;;;14.90;99.90;;;;;;4991857;28;20529;-80
2022/12/31 08:39:48;;;;;;;7.18;3.40;;;15.40;99.90;;;;;;4991742;28;20438;-81
2022/12/31 08:42:43;;;;;;;9.63;5.95;;;15.90;99.90;;;;;;4991017;28;20037;-81
2022/12/31 08:45:21;;;;;;;4.97;3.83;;;16.00;99.90;;;;;;4991632;28;20033;-80
2022/12/31 08:48:05;;;;;;;7.13;4.25;;;16.10;99.90;;;;;;4991372;28;20085;-81
2022/12/31 08:50:31;;;;;;;6.13;4.03;;;16.70;99.90;;;;;;4991919;28;20058;-81
2022/12/31 08:52:57;;;;;;;7.70;5.13;;;16.50;99.90;;;;;;4991653;28;20062;-81
2022/12/31 08:55:23;;;;;;;4.72;3.13;;;16.90;99.90;;;;;;4991365;28;20041;-81
2022/12/31 08:58:07;;;;;;;5.22;3.22;;;16.80;99.90;;;;;;4991145;28;20113;-81
2022/12/31 09:00:35;;;;;;;6.63;3.47;;;17.30;99.90;;;;;;4991598;28;20070;-81
2022/12/31 09:03:19;;;;;;;6.60;3.35;;;17.40;99.90;;;;;;4991510;28;20034;-81
2022/12/31 09:05:59;;;;;;;3.22;2.72;;;16.90;99.90;;;;;;4974713;28;20506;-80
2022/12/31 09:08:34;;;;;;;6.53;3.65;;;17.00;99.90;;;;;;5051132;28;20501;-81
2022/12/31 09:11:22;;;;;;;7.50;3.50;;;16.40;99.90;;;;;;5054122;28;20032;-81
2022/12/31 09:13:53;;;;;;;6.65;3.30;;;16.10;99.90;;;;;;5051747;28;20037;-81
2022/12/31 09:16:42;;;;;;;5.10;3.70;;;15.70;99.90;;;;;;5050201;28;20025;-81
2022/12/31 09:19:09;;;;;;;4.32;3.08;;;15.70;99.90;;;;;;5052617;28;20496;-81
2022/12/31 09:21:36;;;;;;;5.72;3.13;;;15.80;99.90;;;;;;5048247;28;20033;-81
2022/12/31 09:24:03;;;;;;;4.68;2.90;;;15.50;99.90;;;;;;5052253;28;20029;-82
2022/12/31 09:26:50;;;;;;;5.95;2.83;;;15.80;99.90;;;;;;5050189;28;20057;-82
2022/12/31 09:29:44;;;;;;;4.95;2.90;;;15.90;99.90;;;;;;5051559;28;20060;-82
2022/12/31 09:32:19;;;;;;;5.45;3.00;;;15.90;99.90;;;;;;5052406;28;20025;-82
2022/12/31 09:34:54;;;;;;;6.22;2.75;;;16.00;99.90;;;;;;5051889;28;20060;-81
2022/12/31 09:37:42;;;;;;;4.63;2.78;;;15.90;99.90;;;;;;5052057;28;20025;-81
2022/12/31 09:40:50;;;;;;;3.38;2.55;;;15.80;99.90;;;;;;5059825;28;20116;-82
2022/12/31 09:43:52;;;;;;;3.70;2.78;;;15.80;99.90;;;;;;5029864;28;20107;-82
2022/12/31 09:46:31;;;;;;;3.92;2.95;;;16.00;99.90;;;;;;5013097;28;20037;-80
2022/12/31 09:49:30;;;;;;;6.20;3.80;;;15.90;99.90;;;;;;5030038;28;20043;-83
2022/12/31 09:51:58;;;;;;;6.72;4.82;;;16.30;99.90;;;;;;5030088;28;20033;-81
2022/12/31 09:54:42;;;;;;;4.97;2.80;;;16.20;99.90;;;;;;5029729;28;20041;-84
2022/12/31 09:57:26;;;;;;;3.85;2.70;;;15.90;99.90;;;;;;5030064;28;20559;-81
2022/12/31 10:00:10;;;;;;;4.60;2.90;;;16.30;99.90;;;;;;5014869;28;20082;-81
2022/12/31 10:03:09;;;;;;;4.97;2.70;;;16.30;99.90;;;;;;5010935;28;20067;-82
2022/12/31 10:05:55;;;;;;;5.18;3.17;;;16.20;99.90;;;;;;5009768;28;20034;-81
2022/12/31 10:08:42;;;;;;;3.67;2.67;;;16.30;99.90;;;;;;5007197;28;20045;-82
2022/12/31 10:11:46;;;;;;;4.10;2.10;;;16.60;99.90;;;;;;5008975;28;20040;-82
2022/12/31 10:14:33;;;;;;;3.13;2.60;;;16.50;99.90;;;;;;4970351;28;20039;-83
2022/12/31 10:17:10;;;;;;;5.63;2.72;;;16.50;99.90;;;;;;4970753;28;20089;-82
2022/12/31 10:19:53;;;;;;;5.80;2.35;;;17.10;99.90;;;;;;4983463;28;20130;-82
2022/12/31 10:22:52;;;;;;;3.55;2.00;;;17.00;99.90;;;;;;5007826;28;20391;-82
2022/12/31 10:25:42;;;;;;;4.47;2.13;;;17.00;99.90;;;;;;5010029;28;20532;-82
2022/12/31 10:28:29;;;;;;;3.00;2.10;;;17.20;99.90;;;;;;5018652;28;20221;-84
2022/12/31 10:31:36;;;;;;;3.95;2.40;;;17.20;99.90;;;;;;5006771;28;20425;-83
2022/12/31 10:34:25;;;;;;;3.55;2.60;;;17.90;99.90;;;;;;5013311;28;20033;-90
2022/12/31 10:37:02;;;;;;;2.40;2.00;;;18.40;99.90;;;;;;5013386;28;20045;-86
2022/12/31 10:39:39;;;;;;;3.50;1.90;;;18.70;99.90;;;;;;5013675;28;20045;-87
2022/12/31 10:42:32;;;;;;;1.83;1.60;;;18.50;99.90;;;;;;5010366;28;20019;-88
2022/12/31 10:45:03;;;;;;;2.35;2.15;;;18.70;99.90;;;;;;5013306;28;20049;-87
2022/12/31 10:47:32;;;;;;;2.13;1.60;;;19.30;99.90;;;;;;5012988;28;20044;-88
2022/12/31 10:50:48;;;;;;;2.30;2.08;;;19.80;99.90;;;;;;5013957;28;20030;-92
2022/12/31 10:53:51;;;;;;;5.05;2.38;;;23.30;99.90;;;;;;5054953;28;20067;-86
2022/12/31 10:56:31;;;;;;;3.40;2.25;;;21.00;99.90;;;;;;5054903;28;20029;-86
2022/12/31 10:59:13;;;;;;;3.05;1.98;;;19.70;99.90;;;;;;5054681;28;20033;-90
2022/12/31 11:01:59;;;;;;;3.20;2.10;;;19.30;99.90;;;;;;5053353;28;20021;-86
2022/12/31 11:04:47;;;;;;;2.80;2.45;;;19.40;99.90;;;;;;5054744;28;20040;-87
2022/12/31 11:07:34;;;;;;;4.32;2.00;;;19.70;99.90;;;;;;5054148;28;20044;-88
2022/12/31 11:10:36;;;;;;;3.65;2.20;;;19.20;99.90;;;;;;5053085;28;20139;-87
2022/12/31 11:13:43;;;;;;;4.57;2.25;;;19.70;99.90;;;;;;5054074;28;20087;-86
2022/12/31 11:16:15;;;;;;;3.50;1.83;;;20.60;99.90;;;;;;5034624;28;20100;-85
2022/12/31 11:19:20;;;;;;;3.45;2.03;;;19.20;99.90;;;;;;5045023;28;20398;-85
2022/12/31 11:22:03;;;;;;;4.07;2.30;;;20.50;99.90;;;;;;5054542;28;20195;-86
2022/12/31 11:25:02;;;;;;;2.72;1.80;;;21.90;99.90;;;;;;5034736;28;20053;-87
2022/12/31 11:28:05;;;;;;;2.88;2.20;;;22.10;99.90;;;;;;5038510;28;20041;-87
2022/12/31 11:31:11;;;;;;;3.08;2.22;;;21.10;99.90;;;;;;5054630;28;20471;-92
2022/12/31 11:33:53;;;;;;;1.95;1.65;;;21.10;99.90;;;;;;5052308;28;20028;-92
2022/12/31 11:36:35;;;;;;;3.88;2.03;;;20.50;99.90;;;;;;5053669;28;20049;-90
2022/12/31 11:39:12;;;;;;;2.95;2.10;;;20.90;99.90;;;;;;5040115;28;20040;-91
2022/12/31 11:42:06;;;;;;;2.10;1.48;;;20.40;99.90;;;;;;5053030;28;20044;-90
2022/12/31 11:44:44;;;;;;;3.10;2.35;;;20.50;99.90;;;;;;5052682;28;20520;-89
2022/12/31 11:47:24;;;;;;;2.88;2.00;;;21.00;99.90;;;;;;5052889;28;20049;-93
2022/12/31 11:50:27;;;;;;;2.60;1.73;;;20.90;99.90;;;;;;5052102;28;20550;-85
2022/12/31 11:52:58;;;;;;;3.20;2.13;;;21.00;99.90;;;;;;4996893;28;20040;-93
2022/12/31 11:55:42;;;;;;;3.47;1.88;;;21.50;99.90;;;;;;5015625;28;20029;-92
2022/12/31 11:58:14;;;;;;;3.60;2.28;;;20.50;99.90;;;;;;5028277;28;20061;-90
2022/12/31 12:00:48;;;;;;;3.92;2.30;;;20.00;99.90;;;;;;5011910;28;20029;-90
2022/12/31 12:03:13;;;;;;;4.68;1.35;;;19.90;99.90;;;;;;5014742;28;20054;-93
2022/12/31 12:05:39;;;;;;;4.43;1.98;;;19.80;99.90;;;;;;5032237;28;20030;-86
2022/12/31 12:08:05;;;;;;;3.65;2.05;;;20.40;99.90;;;;;;5030959;28;20076;-87
2022/12/31 12:10:44;;;;;;;3.17;2.10;;;20.20;99.90;;;;;;5030728;28;20562;-86
2022/12/31 12:13:21;;;;;;;3.45;2.08;;;23.70;99.90;;;;;;5030297;28;20021;-85
2022/12/31 12:15:53;;;;;;;4.13;1.90;;;21.80;99.90;;;;;;5029642;28;20436;-86
2022/12/31 12:18:32;;;;;;;3.47;2.10;;;23.00;99.90;;;;;;5031523;28;20021;-85
2022/12/31 12:21:17;;;;;;;2.75;1.88;;;23.20;99.90;;;;;;5030126;28;20029;-86
2022/12/31 12:24:05;;;;;;;3.50;1.77;;;23.60;99.90;;;;;;5029468;28;20038;-87
2022/12/31 12:26:40;;;;;;;4.65;1.92;;;22.20;99.90;;;;;;5031019;28;20056;-86
2022/12/31 12:29:18;;;;;;;1.50;1.27;;;23.00;99.90;;;;;;5037165;28;20033;-86
2022/12/31 12:31:57;;;;;;;2.78;1.95;;;21.80;99.90;;;;;;5053290;28;20501;-86
2022/12/31 12:34:29;;;;;;;4.70;1.70;;;22.90;99.90;;;;;;5052697;28;20480;-86
2022/12/31 12:36:55;;;;;;;3.88;1.63;;;21.50;99.90;;;;;;5053135;28;20029;-86
2022/12/31 12:39:30;;;;;;;2.88;1.80;;;20.70;99.90;;;;;;5052983;28;20021;-85
2022/12/31 12:42:11;;;;;;;5.22;2.60;;;20.70;99.90;;;;;;5053234;28;20025;-85
2022/12/31 12:44:39;;;;;;;1.95;1.73;;;21.50;99.90;;;;;;5071502;28;20458;-86
2022/12/31 12:47:07;;;;;;;2.55;1.77;;;19.60;99.90;;;;;;5072805;28;20115;-85
2022/12/31 12:49:42;;;;;;;2.95;1.77;;;20.10;99.90;;;;;;5072775;28;20017;-85
2022/12/31 12:52:20;;;;;;;4.75;2.13;;;20.50;99.90;;;;;;5058679;28;20086;-87
2022/12/31 12:55:03;;;;;;;4.82;2.67;;;20.80;99.90;;;;;;5052504;28;20052;-85
2022/12/31 12:57:52;;;;;;;3.13;2.05;;;21.10;99.90;;;;;;5037853;28;20022;-85
2022/12/31 13:00:19;;;;;;;2.45;1.65;;;21.40;99.90;;;;;;5042837;28;20115;-85
2022/12/31 13:02:47;;;;;;;4.32;2.00;;;20.90;99.90;;;;;;5049626;28;20025;-89
2022/12/31 13:05:42;;;;;;;2.72;1.92;;;20.10;99.90;;;;;;5046159;28;20104;-85
2022/12/31 13:08:19;;;;;;;3.38;1.55;;;19.60;99.90;;;;;;5052191;28;20417;-85
2022/12/31 13:11:14;;;;;;;3.30;2.20;;;18.90;99.90;;;;;;5052559;28;20158;-86
2022/12/31 13:14:01;;;;;;;4.68;2.30;;;19.50;99.90;;;;;;5032876;28;20032;-87
2022/12/31 13:17:07;;;;;;;2.53;2.00;;;19.10;99.90;;;;;;5049354;28;20524;-86
2022/12/31 13:20:00;;;;;;;2.80;2.00;;;19.10;99.90;;;;;;5047813;28;20040;-86
2022/12/31 13:22:35;;;;;;;4.18;2.45;;;18.50;99.90;;;;;;5051495;28;20111;-87
2022/12/31 13:25:15;;;;;;;2.72;2.22;;;18.80;99.90;;;;;;5053075;28;20398;-94
2022/12/31 13:27:49;;;;;;;3.13;2.00;;;19.90;99.90;;;;;;5053244;28;20040;-86
2022/12/31 13:30:22;;;;;;;3.38;2.08;;;19.30;99.90;;;;;;5052713;28;20025;-86
2022/12/31 13:33:00;;;;;;;5.95;1.50;;;19.10;99.90;;;;;;5050750;28;20563;-87
2022/12/31 13:35:33;;;;;;;3.63;2.35;;;18.70;99.90;;;;;;5052736;28;20021;-85
2022/12/31 13:38:16;;;;;;;2.85;1.42;;;18.50;99.90;;;;;;5052592;28;20035;-91